createdAt,value
2017-02-28T00:00:08.456Z,20.5
2017-02-28T00:02:05.159Z,20.6
2017-02-28T00:04:04.836Z,20.6
2017-02-28T00:06:05.875Z,20.6
2017-02-28T00:08:05.013Z,20.6
2017-02-28T00:10:04.755Z,20.6
2017-02-28T00:12:10.139Z,20.6
2017-02-28T00:14:05.012Z,20.6
2017-02-28T00:16:04.684Z,20.6
2017-02-28T00:18:05.380Z,20.6
2017-02-28T00:20:07.682Z,20.6
2017-02-28T00:22:05.135Z,20.6
2017-02-28T00:24:05.029Z,20.6
2017-02-28T00:26:04.779Z,20.6
2017-02-28T00:28:05.840Z,20.6
2017-02-28T00:30:05.700Z,20.6
2017-02-28T00:32:05.431Z,20.5
2017-02-28T00:34:05.221Z,20.5
2017-02-28T00:36:07.824Z,20.5
2017-02-28T00:38:10.704Z,20.5
2017-02-28T00:40:10.484Z,20.5
2017-02-28T00:42:04.959Z,20.5
2017-02-28T00:44:05.468Z,20.5
2017-02-28T00:46:05.156Z,20.5
2017-02-28T00:48:05.570Z,20.5
2017-02-28T00:50:05.352Z,20.5
2017-02-28T00:52:07.587Z,20.5
2017-02-28T00:54:05.526Z,20.5
2017-02-28T00:56:05.293Z,20.5
2017-02-28T00:58:05.071Z,20.5
2017-02-28T01:00:05.109Z,20.5
2017-02-28T01:02:09.959Z,20.5
2017-02-28T01:04:10.301Z,20.5
2017-02-28T01:06:05.309Z,20.5
2017-02-28T01:08:05.572Z,20.5
2017-02-28T01:10:05.425Z,20.5
2017-02-28T01:12:04.935Z,20.5
2017-02-28T01:14:04.609Z,20.5
2017-02-28T01:16:08.220Z,20.5
2017-02-28T01:18:05.296Z,20.5
2017-02-28T01:20:07.551Z,20.5
2017-02-28T01:22:05.296Z,20.5
2017-02-28T01:24:05.186Z,20.5
2017-02-28T01:26:04.925Z,20.5
2017-02-28T01:28:05.208Z,20.5
2017-02-28T01:30:05.297Z,20.5
2017-02-28T01:32:07.700Z,20.5
2017-02-28T01:34:08.163Z,20.5
2017-02-28T01:36:07.622Z,20.5
2017-02-28T01:38:07.868Z,20.5
2017-02-28T01:40:05.581Z,20.5
2017-02-28T01:42:05.706Z,20.5
2017-02-28T01:44:05.435Z,20.5
2017-02-28T01:46:04.770Z,20.5
2017-02-28T01:48:05.874Z,20.5
2017-02-28T01:50:07.156Z,20.5
2017-02-28T01:52:09.933Z,20.5
2017-02-28T01:54:07.548Z,20.5
2017-02-28T01:56:05.330Z,20.5
2017-02-28T01:58:05.091Z,20.4
2017-02-28T02:00:07.560Z,20.4
2017-02-28T02:02:05.302Z,20.5
2017-02-28T02:04:05.411Z,20.4
2017-02-28T02:06:05.349Z,20.5
2017-02-28T02:08:05.100Z,20.5
2017-02-28T02:10:04.851Z,20.5
2017-02-28T02:12:08.408Z,20.4
2017-02-28T02:14:05.132Z,20.4
2017-02-28T02:16:04.892Z,20.5
2017-02-28T02:18:05.064Z,20.5
2017-02-28T02:20:05.435Z,20.4
2017-02-28T02:22:04.768Z,20.4
2017-02-28T02:24:08.215Z,20.5
2017-02-28T02:26:04.949Z,20.4
2017-02-28T02:28:05.293Z,20.4
2017-02-28T02:30:05.811Z,20.5
2017-02-28T02:32:05.604Z,20.4
2017-02-28T02:34:10.465Z,20.4
2017-02-28T02:36:13.128Z,20.4
2017-02-28T02:38:04.847Z,20.4
2017-02-28T02:40:05.654Z,20.4
2017-02-28T02:42:05.520Z,20.5
2017-02-28T02:44:10.357Z,20.4
2017-02-28T02:46:05.136Z,20.4
2017-02-28T02:48:05.256Z,20.4
2017-02-28T02:50:05.023Z,20.5
2017-02-28T02:52:13.227Z,20.4
2017-02-28T02:54:05.351Z,20.5
2017-02-28T02:56:12.747Z,20.5
2017-02-28T02:58:05.505Z,20.4
2017-02-28T03:00:05.022Z,20.5
2017-02-28T03:02:04.762Z,20.4
2017-02-28T03:04:05.442Z,20.4
2017-02-28T03:06:10.452Z,20.4
2017-02-28T03:08:05.423Z,20.4
2017-02-28T03:10:05.116Z,20.5
2017-02-28T03:12:05.113Z,20.4
2017-02-28T03:14:09.915Z,20.4
2017-02-28T03:16:04.702Z,20.4
2017-02-28T03:18:04.904Z,20.4
2017-02-28T03:20:04.687Z,20.4
2017-02-28T03:22:04.586Z,20.4
2017-02-28T03:24:05.464Z,20.4
2017-02-28T03:26:05.193Z,20.4
2017-02-28T03:28:04.910Z,20.4
2017-02-28T03:30:05.281Z,20.4
2017-02-28T03:32:05.070Z,20.4
2017-02-28T03:34:04.822Z,20.4
2017-02-28T03:36:05.930Z,20.4
2017-02-28T03:38:04.662Z,20.4
2017-02-28T03:40:05.827Z,20.4
2017-02-28T03:42:05.850Z,20.4
2017-02-28T03:44:05.563Z,20.4
2017-02-28T03:46:04.798Z,20.4
2017-02-28T03:48:05.342Z,20.4
2017-02-28T03:50:05.135Z,20.4
2017-02-28T03:52:04.817Z,20.4
2017-02-28T03:54:05.694Z,20.4
2017-02-28T03:56:05.781Z,20.4
2017-02-28T03:58:05.555Z,20.4
2017-02-28T04:00:05.589Z,20.4
2017-02-28T04:02:07.894Z,20.4
2017-02-28T04:04:05.580Z,20.4
2017-02-28T04:06:10.688Z,20.4
2017-02-28T04:08:07.928Z,20.4
2017-02-28T04:10:04.783Z,20.4
2017-02-28T04:12:05.875Z,20.4
2017-02-28T04:14:05.168Z,20.4
2017-02-28T04:16:05.464Z,20.4
2017-02-28T04:18:05.537Z,20.4
2017-02-28T04:20:05.323Z,20.4
2017-02-28T04:22:05.068Z,20.4
2017-02-28T04:24:04.942Z,20.4
2017-02-28T04:26:04.674Z,20.4
2017-02-28T04:28:05.718Z,20.4
2017-02-28T04:30:04.922Z,20.4
2017-02-28T04:32:04.702Z,20.4
2017-02-28T04:34:04.997Z,20.4
2017-02-28T04:36:05.059Z,20.4
2017-02-28T04:38:04.776Z,20.4
2017-02-28T04:40:05.496Z,20.4
2017-02-28T04:42:05.395Z,20.4
2017-02-28T04:44:05.443Z,20.4
2017-02-28T04:46:15.487Z,20.4
2017-02-28T04:48:05.365Z,20.4
2017-02-28T04:50:07.728Z,20.4
2017-02-28T04:52:10.618Z,20.4
2017-02-28T04:54:05.898Z,20.4
2017-02-28T04:56:05.603Z,20.4
2017-02-28T04:58:05.338Z,20.4
2017-02-28T05:00:05.404Z,20.4
2017-02-28T05:02:07.693Z,20.4
2017-02-28T05:04:05.388Z,20.4
2017-02-28T05:06:07.520Z,20.4
2017-02-28T05:08:04.985Z,20.4
2017-02-28T05:10:04.719Z,20.4
2017-02-28T05:12:12.201Z,20.4
2017-02-28T05:14:04.868Z,20.4
2017-02-28T05:16:05.101Z,20.4
2017-02-28T05:18:05.389Z,20.4
2017-02-28T05:20:07.642Z,20.4
2017-02-28T05:22:05.374Z,20.4
2017-02-28T05:24:05.239Z,20.4
2017-02-28T05:26:05.500Z,20.4
2017-02-28T05:28:05.358Z,20.4
2017-02-28T05:30:05.338Z,20.4
2017-02-28T05:32:05.711Z,20.4
2017-02-28T05:34:05.415Z,20.4
2017-02-28T05:36:05.624Z,20.4
2017-02-28T05:38:05.350Z,20.4
2017-02-28T05:40:05.312Z,20.4
2017-02-28T05:42:05.443Z,20.4
2017-02-28T05:44:07.798Z,20.4
2017-02-28T05:46:08.016Z,20.4
2017-02-28T05:48:05.645Z,20.3
2017-02-28T05:50:05.434Z,20.4
2017-02-28T05:52:07.688Z,20.4
2017-02-28T05:54:05.082Z,20.4
2017-02-28T05:56:04.908Z,20.4
2017-02-28T05:58:04.640Z,20.4
2017-02-28T06:00:05.564Z,20.4
2017-02-28T06:02:05.281Z,20.4
2017-02-28T06:04:05.215Z,20.4
2017-02-28T06:06:05.524Z,20.4
2017-02-28T06:08:05.235Z,20.4
2017-02-28T06:10:04.997Z,20.4
2017-02-28T06:12:04.945Z,20.4
2017-02-28T06:14:04.644Z,20.4
2017-02-28T06:16:05.402Z,20.4
2017-02-28T06:18:05.707Z,20.4
2017-02-28T06:20:10.140Z,20.4
2017-02-28T06:22:04.927Z,20.4
2017-02-28T06:24:10.086Z,20.4
2017-02-28T06:26:04.793Z,20.4
2017-02-28T06:28:10.582Z,20.4
2017-02-28T06:30:05.440Z,20.4
2017-02-28T06:32:05.171Z,20.3
2017-02-28T06:34:07.431Z,20.3
2017-02-28T06:36:10.548Z,20.4
2017-02-28T06:38:05.233Z,20.4
2017-02-28T06:40:07.483Z,20.4
2017-02-28T06:42:05.421Z,20.4
2017-02-28T06:44:05.204Z,20.4
2017-02-28T06:46:07.939Z,20.4
2017-02-28T06:48:04.863Z,20.4
2017-02-28T06:50:06.861Z,20.4
2017-02-28T06:52:05.012Z,20.4
2017-02-28T06:54:10.885Z,20.4
2017-02-28T06:56:05.112Z,20.4
2017-02-28T06:58:04.942Z,20.4
2017-02-28T07:00:04.934Z,20.4
2017-02-28T07:02:04.926Z,20.4
2017-02-28T07:04:05.596Z,20.4
2017-02-28T07:06:05.645Z,20.4
2017-02-28T07:08:05.790Z,20.5
2017-02-28T07:10:05.618Z,20.5
2017-02-28T07:12:05.575Z,20.4
2017-02-28T07:14:07.805Z,20.4
2017-02-28T07:16:05.562Z,20.4
2017-02-28T07:18:05.849Z,20.4
2017-02-28T07:20:08.142Z,20.5
2017-02-28T07:22:05.543Z,20.5
2017-02-28T07:24:05.266Z,20.5
2017-02-28T07:26:06.491Z,20.5
2017-02-28T07:28:05.389Z,20.5
2017-02-28T07:30:05.465Z,20.5
2017-02-28T07:32:11.397Z,20.5
2017-02-28T07:34:07.505Z,20.5
2017-02-28T07:36:05.738Z,20.5
2017-02-28T07:38:06.517Z,20.5
2017-02-28T07:40:05.572Z,20.6
2017-02-28T07:42:05.010Z,20.6
2017-02-28T07:44:04.812Z,20.6
2017-02-28T07:46:05.690Z,20.6
2017-02-28T07:48:05.715Z,20.6
2017-02-28T07:50:07.222Z,20.6
2017-02-28T07:52:04.927Z,20.5
2017-02-28T07:54:05.637Z,20.6
2017-02-28T07:56:05.522Z,20.6
2017-02-28T07:58:07.289Z,20.5
2017-02-28T08:00:05.140Z,20.5
2017-02-28T08:02:04.903Z,20.6
2017-02-28T08:04:07.262Z,20.5
2017-02-28T08:06:05.356Z,20.5
2017-02-28T08:08:05.042Z,20.6
2017-02-28T08:10:05.300Z,20.5
2017-02-28T08:12:05.983Z,20.6
2017-02-28T08:14:04.724Z,20.6
2017-02-28T08:16:10.592Z,20.6
2017-02-28T08:18:05.899Z,20.6
2017-02-28T08:20:04.668Z,20.6
2017-02-28T08:22:05.371Z,20.6
2017-02-28T08:24:05.412Z,20.6
2017-02-28T08:26:04.665Z,20.7
2017-02-28T08:28:05.047Z,20.6
2017-02-28T08:30:10.030Z,20.6
2017-02-28T08:32:04.793Z,20.7
2017-02-28T08:34:05.467Z,20.7
2017-02-28T08:36:07.816Z,20.7
2017-02-28T08:38:08.031Z,20.8
2017-02-28T08:40:05.002Z,20.8
2017-02-28T08:42:07.435Z,21
2017-02-28T08:44:07.792Z,21
2017-02-28T08:46:08.153Z,21.2
2017-02-28T08:48:04.999Z,21.1
2017-02-28T08:50:05.379Z,21.2
2017-02-28T08:52:05.139Z,21.4
2017-02-28T08:54:08.027Z,21.5
2017-02-28T08:56:07.327Z,21.6
2017-02-28T08:58:05.088Z,21.6
2017-02-28T09:00:05.181Z,21.6
2017-02-28T09:02:04.904Z,21.7
2017-02-28T09:04:07.886Z,22
2017-02-28T09:06:04.947Z,22
2017-02-28T09:08:04.639Z,22.1
2017-02-28T09:10:05.354Z,22
2017-02-28T09:12:06.228Z,22
2017-02-28T09:14:04.997Z,22
2017-02-28T09:16:04.983Z,22
2017-02-28T09:18:06.096Z,22
2017-02-28T09:20:04.976Z,22.1
2017-02-28T09:22:04.760Z,22.1
2017-02-28T09:24:05.850Z,22
2017-02-28T09:26:05.106Z,22.1
2017-02-28T09:28:04.932Z,22.1
2017-02-28T09:30:05.056Z,22.2
2017-02-28T09:32:05.022Z,22.3
2017-02-28T09:34:04.755Z,22.3
2017-02-28T09:36:05.713Z,22.3
2017-02-28T09:38:07.984Z,22.1
2017-02-28T09:40:04.770Z,22.1
2017-02-28T09:42:05.901Z,22.1
2017-02-28T09:44:07.197Z,22.2
2017-02-28T09:46:04.945Z,22.2
2017-02-28T09:48:07.356Z,22.3
2017-02-28T09:50:05.074Z,22.3
2017-02-28T09:52:04.831Z,22.4
2017-02-28T09:54:05.649Z,22.5
2017-02-28T09:56:06.728Z,22.6
2017-02-28T09:58:05.147Z,22.6
2017-02-28T10:00:11.470Z,22.5
2017-02-28T10:02:19.983Z,22.4
2017-02-28T10:04:10.343Z,22.3
2017-02-28T10:06:10.339Z,22.2
2017-02-28T10:08:07.441Z,22
2017-02-28T10:10:05.380Z,22
2017-02-28T10:12:08.384Z,21.8
2017-02-28T10:14:05.296Z,21.7
2017-02-28T10:16:05.047Z,21.7
2017-02-28T10:18:05.488Z,21.7
2017-02-28T10:20:13.023Z,21.6
2017-02-28T10:22:04.806Z,21.6
2017-02-28T10:24:05.646Z,21.6
2017-02-28T10:26:05.364Z,21.6
2017-02-28T10:28:05.092Z,21.5
2017-02-28T10:30:05.581Z,21.5
2017-02-28T10:32:05.398Z,21.5
2017-02-28T10:34:05.164Z,21.5
2017-02-28T10:36:05.981Z,21.5
2017-02-28T10:38:07.201Z,21.4
2017-02-28T10:40:04.899Z,21.4
2017-02-28T10:42:15.878Z,21.4
2017-02-28T10:44:04.659Z,21.3
2017-02-28T10:46:05.392Z,21.3
2017-02-28T10:48:05.338Z,21.3
2017-02-28T10:50:05.054Z,21.3
2017-02-28T10:52:05.031Z,21.3
2017-02-28T10:54:04.962Z,21.3
2017-02-28T10:56:05.243Z,21.3
2017-02-28T10:58:05.205Z,21.2
2017-02-28T11:00:05.110Z,21.2
2017-02-28T11:02:07.380Z,21.2
2017-02-28T11:04:05.343Z,21.2
2017-02-28T11:06:05.398Z,21.2
2017-02-28T11:08:10.064Z,21.1
2017-02-28T11:10:07.314Z,21.1
2017-02-28T11:12:08.755Z,21.1
2017-02-28T11:14:08.041Z,21.1
2017-02-28T11:16:04.829Z,21.1
2017-02-28T11:18:10.124Z,21.1
2017-02-28T11:20:07.363Z,21.1
2017-02-28T11:22:10.135Z,21
2017-02-28T11:24:10.360Z,21.1
2017-02-28T11:26:05.146Z,21.1
2017-02-28T11:28:05.019Z,21.1
2017-02-28T11:30:05.108Z,21.1
2017-02-28T11:32:04.860Z,21
2017-02-28T11:34:05.612Z,21
2017-02-28T11:36:08.428Z,21
2017-02-28T11:38:05.261Z,21
2017-02-28T11:40:05.409Z,21
2017-02-28T11:42:05.366Z,21
2017-02-28T11:44:05.163Z,21
2017-02-28T11:46:07.393Z,20.9
2017-02-28T11:48:04.859Z,20.9
2017-02-28T11:50:04.670Z,20.9
2017-02-28T11:52:05.426Z,21
2017-02-28T11:54:05.599Z,20.9
2017-02-28T11:56:05.650Z,20.9
2017-02-28T11:58:05.365Z,20.9
2017-02-28T12:00:05.374Z,20.9
2017-02-28T12:02:04.600Z,20.9
2017-02-28T12:04:07.864Z,20.9
2017-02-28T12:06:05.139Z,20.9
2017-02-28T12:08:07.396Z,20.9
2017-02-28T12:10:05.204Z,20.9
2017-02-28T12:12:05.454Z,20.8
2017-02-28T12:14:05.148Z,20.9
2017-02-28T12:16:04.925Z,20.9
2017-02-28T12:18:07.697Z,20.8
2017-02-28T12:20:05.036Z,20.8
2017-02-28T12:22:04.844Z,20.8
2017-02-28T12:24:05.149Z,20.8
2017-02-28T12:26:05.449Z,20.8
2017-02-28T12:28:05.528Z,20.8
2017-02-28T12:30:05.698Z,20.8
2017-02-28T12:32:10.037Z,20.8
2017-02-28T12:34:05.386Z,20.8
2017-02-28T12:36:07.555Z,20.8
2017-02-28T12:38:05.237Z,20.8
2017-02-28T12:40:04.952Z,20.8
2017-02-28T12:42:05.093Z,20.8
2017-02-28T12:44:05.143Z,20.8
2017-02-28T12:46:04.915Z,20.8
2017-02-28T12:48:08.035Z,20.7
2017-02-28T12:50:05.359Z,20.7
2017-02-28T12:52:05.195Z,20.8
2017-02-28T12:54:07.616Z,20.8
2017-02-28T12:56:05.368Z,20.7
2017-02-28T12:58:05.117Z,20.7
2017-02-28T13:00:08.226Z,20.7
2017-02-28T13:02:05.033Z,20.7
2017-02-28T13:04:04.753Z,20.7
2017-02-28T13:06:05.839Z,20.7
2017-02-28T13:08:05.589Z,20.7
2017-02-28T13:10:05.273Z,20.7
2017-02-28T13:12:05.274Z,20.7
2017-02-28T13:14:05.049Z,20.7
2017-02-28T13:16:09.941Z,20.7
2017-02-28T13:18:09.911Z,20.7
2017-02-28T13:20:04.753Z,20.7
2017-02-28T13:22:05.550Z,20.7
2017-02-28T13:24:05.579Z,20.7
2017-02-28T13:26:07.828Z,20.7
2017-02-28T13:28:04.791Z,20.7
2017-02-28T13:30:06.034Z,20.7
2017-02-28T13:32:04.894Z,20.7
2017-02-28T13:34:04.653Z,20.7
2017-02-28T13:36:05.747Z,20.6
2017-02-28T13:38:05.573Z,20.7
2017-02-28T13:40:05.375Z,20.6
2017-02-28T13:42:05.374Z,20.6
2017-02-28T13:44:05.089Z,20.6
2017-02-28T13:46:07.360Z,20.6
2017-02-28T13:48:05.314Z,20.6
2017-02-28T13:50:05.011Z,20.6
2017-02-28T13:52:07.192Z,20.6
2017-02-28T13:54:05.130Z,20.6
2017-02-28T13:56:04.903Z,20.6
2017-02-28T13:58:07.179Z,20.6
2017-02-28T14:00:04.990Z,20.6
2017-02-28T14:02:04.722Z,20.6
2017-02-28T14:04:13.366Z,20.6
2017-02-28T14:06:05.120Z,20.6
2017-02-28T14:08:07.414Z,20.6
2017-02-28T14:10:05.121Z,20.6
2017-02-28T14:12:07.663Z,20.6
2017-02-28T14:14:10.437Z,20.6
2017-02-28T14:16:10.281Z,20.6
2017-02-28T14:18:05.642Z,20.6
2017-02-28T14:20:05.530Z,20.6
2017-02-28T14:22:07.906Z,20.6
2017-02-28T14:24:05.032Z,20.6
2017-02-28T14:26:04.730Z,20.6
2017-02-28T14:28:05.471Z,20.6
2017-02-28T14:30:05.570Z,20.6
2017-02-28T14:32:07.793Z,20.6
2017-02-28T14:34:04.771Z,20.6
2017-02-28T14:36:05.852Z,20.6
2017-02-28T14:38:05.577Z,20.6
2017-02-28T14:40:07.846Z,20.5
2017-02-28T14:42:05.756Z,20.6
2017-02-28T14:44:05.479Z,20.5
2017-02-28T14:46:04.720Z,20.5
2017-02-28T14:48:07.784Z,20.5
2017-02-28T14:50:05.509Z,20.5
2017-02-28T14:52:05.642Z,20.5
2017-02-28T14:54:05.251Z,20.5
2017-02-28T14:56:07.582Z,20.5
2017-02-28T14:58:05.403Z,20.5
2017-02-28T15:00:05.424Z,20.5
2017-02-28T15:02:05.210Z,20.5
2017-02-28T15:04:05.557Z,20.5
2017-02-28T15:06:05.604Z,20.5
2017-02-28T15:08:05.686Z,20.5
2017-02-28T15:10:05.406Z,20.5
2017-02-28T15:12:05.340Z,20.5
2017-02-28T15:14:05.065Z,20.5
2017-02-28T15:16:07.512Z,20.5
2017-02-28T15:18:05.696Z,20.4
2017-02-28T15:20:05.435Z,20.5
2017-02-28T15:22:04.842Z,20.5
2017-02-28T15:24:04.933Z,20.5
2017-02-28T15:26:04.657Z,20.5
2017-02-28T15:28:05.498Z,20.5
2017-02-28T15:30:05.534Z,20.5
2017-02-28T15:32:05.292Z,20.5
2017-02-28T15:34:07.830Z,20.5
2017-02-28T15:36:08.279Z,20.4
2017-02-28T15:38:05.016Z,20.4
2017-02-28T15:40:05.002Z,20.5
2017-02-28T15:42:05.184Z,20.4
2017-02-28T15:44:07.463Z,20.4
2017-02-28T15:46:07.703Z,20.4
2017-02-28T15:48:07.718Z,20.4
2017-02-28T15:50:10.598Z,20.4
2017-02-28T15:52:05.340Z,20.4
2017-02-28T15:54:05.465Z,20.4
2017-02-28T15:56:04.876Z,20.4
2017-02-28T15:58:08.175Z,20.4
2017-02-28T16:00:05.229Z,20.4
2017-02-28T16:02:04.973Z,20.4
2017-02-28T16:04:04.718Z,20.4
2017-02-28T16:06:05.534Z,20.4
2017-02-28T16:08:07.775Z,20.4
2017-02-28T16:10:05.497Z,20.4
2017-02-28T16:12:05.570Z,20.4
2017-02-28T16:14:07.869Z,20.4
2017-02-28T16:16:07.674Z,20.4
2017-02-28T16:18:04.957Z,20.4
2017-02-28T16:20:04.695Z,20.4
2017-02-28T16:22:05.397Z,20.4
2017-02-28T16:24:05.050Z,20.4
2017-02-28T16:26:07.841Z,20.4
2017-02-28T16:28:05.767Z,20.4
2017-02-28T16:30:10.719Z,20.4
2017-02-28T16:32:05.390Z,20.4
2017-02-28T16:34:07.673Z,20.4
2017-02-28T16:36:05.740Z,20.4
2017-02-28T16:38:05.380Z,20.4
2017-02-28T16:40:05.651Z,20.4
2017-02-28T16:42:08.437Z,20.4
2017-02-28T16:44:04.871Z,20.4
2017-02-28T16:46:05.621Z,20.4
2017-02-28T16:48:06.788Z,20.4
2017-02-28T16:50:05.305Z,20.4
2017-02-28T16:52:05.353Z,20.4
2017-02-28T16:54:06.412Z,20.4
2017-02-28T16:56:05.578Z,20.4
2017-02-28T16:58:05.520Z,20.3
2017-02-28T17:00:08.192Z,20.3
2017-02-28T17:02:04.997Z,20.3
2017-02-28T17:04:09.825Z,20.3
2017-02-28T17:06:05.414Z,20.3
2017-02-28T17:08:05.031Z,20.3
2017-02-28T17:10:05.454Z,20.3
2017-02-28T17:12:05.565Z,20.3
2017-02-28T17:14:05.291Z,20.3
2017-02-28T17:16:05.405Z,20.3
2017-02-28T17:18:10.675Z,20.3
2017-02-28T17:20:05.488Z,20.3
2017-02-28T17:22:05.218Z,20.3
2017-02-28T17:24:05.045Z,20.3
2017-02-28T17:26:04.728Z,20.3
2017-02-28T17:28:08.011Z,20.3
2017-02-28T17:30:05.060Z,20.3
2017-02-28T17:32:12.722Z,20.3
2017-02-28T17:34:05.660Z,20.3
2017-02-28T17:36:05.149Z,20.3
2017-02-28T17:38:04.926Z,20.3
2017-02-28T17:40:04.617Z,20.3
2017-02-28T17:42:05.450Z,20.3
2017-02-28T17:44:05.184Z,20.3
2017-02-28T17:46:05.411Z,20.3
2017-02-28T17:50:04.711Z,20.3
2017-02-28T17:52:05.573Z,20.3
2017-02-28T17:54:05.645Z,20.3
2017-02-28T17:56:10.479Z,20.2
2017-02-28T17:58:05.274Z,20.2
2017-02-28T18:00:05.330Z,20.2
2017-02-28T18:02:10.111Z,20.2
2017-02-28T18:04:07.684Z,20.3
2017-02-28T18:06:04.730Z,20.2
2017-02-28T18:08:05.509Z,20.2
2017-02-28T18:10:08.093Z,20.2
2017-02-28T18:12:04.961Z,20.2
2017-02-28T18:14:04.681Z,20.2
2017-02-28T18:16:07.944Z,20.2
2017-02-28T18:18:05.755Z,20.2
2017-02-28T18:20:05.764Z,20.2
2017-02-28T18:22:05.055Z,20.2
2017-02-28T18:24:05.257Z,20.2
2017-02-28T18:26:05.315Z,20.2
2017-02-28T18:28:07.578Z,20.2
2017-02-28T18:30:07.641Z,20.2
2017-02-28T18:32:05.474Z,20.2
2017-02-28T18:34:05.739Z,20.2
2017-02-28T18:36:05.733Z,20.2
2017-02-28T18:38:04.733Z,20.2
2017-02-28T18:40:07.999Z,20.2
2017-02-28T18:42:04.933Z,20.2
2017-02-28T18:44:05.006Z,20.2
2017-02-28T18:46:04.753Z,20.2
2017-02-28T18:48:04.852Z,20.2
2017-02-28T18:50:05.585Z,20.2
2017-02-28T18:52:10.409Z,20.2
2017-02-28T18:54:05.393Z,20.2
2017-02-28T18:56:05.152Z,20.2
2017-02-28T18:58:09.959Z,20.2
2017-02-28T19:00:05.003Z,20.2
2017-02-28T19:02:05.292Z,20.2
2017-02-28T19:04:06.644Z,20.2
2017-02-28T19:06:10.449Z,20.2
2017-02-28T19:08:04.899Z,20.2
2017-02-28T19:10:09.760Z,20.2
2017-02-28T19:12:06.036Z,20.2
2017-02-28T19:14:04.768Z,20.2
2017-02-28T19:16:05.556Z,20.2
2017-02-28T19:18:05.191Z,20.2
2017-02-28T19:20:04.931Z,20.2
2017-02-28T19:22:12.508Z,20.2
2017-02-28T19:24:05.461Z,20.2
2017-02-28T19:26:05.215Z,20.2
2017-02-28T19:28:05.009Z,20.2
2017-02-28T19:30:05.068Z,20.1
2017-02-28T19:32:04.794Z,20.2
2017-02-28T19:34:05.806Z,20.2
2017-02-28T19:36:05.808Z,20.2
2017-02-28T19:38:05.795Z,20.2
2017-02-28T19:40:05.778Z,20.2
2017-02-28T19:42:04.809Z,20.2
2017-02-28T19:44:04.897Z,20.2
2017-02-28T19:46:04.634Z,20.2
2017-02-28T19:48:05.731Z,20.1
2017-02-28T19:50:13.063Z,20.1
2017-02-28T19:52:05.050Z,20.1
2017-02-28T19:54:05.278Z,20.1
2017-02-28T19:56:05.150Z,20.1
2017-02-28T19:58:04.894Z,20.1
2017-02-28T20:00:05.279Z,20.1
2017-02-28T20:02:05.479Z,20.2
2017-02-28T20:04:05.280Z,20.1
2017-02-28T20:06:07.903Z,20.2
2017-02-28T20:08:04.739Z,20.2
2017-02-28T20:10:05.550Z,20.1
2017-02-28T20:12:05.872Z,20.2
2017-02-28T20:14:04.657Z,20.1
2017-02-28T20:16:05.445Z,20.1
2017-02-28T20:18:05.828Z,20.1
2017-02-28T20:20:08.181Z,20.1
2017-02-28T20:22:04.920Z,20.1
2017-02-28T20:24:05.047Z,20.1
2017-02-28T20:26:05.326Z,20.1
2017-02-28T20:28:05.462Z,20.1
2017-02-28T20:30:05.429Z,20.1
2017-02-28T20:32:05.355Z,20.1
2017-02-28T20:34:05.129Z,20.1
2017-02-28T20:36:12.606Z,20.1
2017-02-28T20:38:07.631Z,20.1
2017-02-28T20:40:04.741Z,20.1
2017-02-28T20:42:05.576Z,20.1
2017-02-28T20:44:05.615Z,20.1
2017-02-28T20:46:05.564Z,20.1
2017-02-28T20:48:05.414Z,20.1
2017-02-28T20:50:05.327Z,20.1
2017-02-28T20:52:05.163Z,20.1
2017-02-28T20:54:05.268Z,20.1
2017-02-28T20:56:05.038Z,20.1
2017-02-28T20:58:05.321Z,20.1
2017-02-28T21:00:05.689Z,20.1
2017-02-28T21:02:07.955Z,20.1
2017-02-28T21:04:04.751Z,20.1
2017-02-28T21:06:05.873Z,20.1
2017-02-28T21:08:04.638Z,20.1
2017-02-28T21:10:05.151Z,20.1
2017-02-28T21:12:08.329Z,20.1
2017-02-28T21:14:05.390Z,20.1
2017-02-28T21:16:05.370Z,20.1
2017-02-28T21:18:05.212Z,20.1
2017-02-28T21:20:04.956Z,20.1
2017-02-28T21:22:05.233Z,20.1
2017-02-28T21:24:05.100Z,20.1
2017-02-28T21:26:04.923Z,20.1
2017-02-28T21:28:04.810Z,20.1
2017-02-28T21:30:04.959Z,20.1
2017-02-28T21:32:05.298Z,20.1
2017-02-28T21:34:05.051Z,20.1
2017-02-28T21:36:05.600Z,20.1
2017-02-28T21:38:05.415Z,20.1
2017-02-28T21:40:04.697Z,20.1
2017-02-28T21:42:05.802Z,20.1
2017-02-28T21:44:05.532Z,20.1
2017-02-28T21:46:05.221Z,20
2017-02-28T21:48:05.226Z,20
2017-02-28T21:50:04.710Z,20
2017-02-28T21:52:05.474Z,20
2017-02-28T21:54:05.647Z,20
2017-02-28T21:56:04.952Z,20
2017-02-28T21:58:07.384Z,20
2017-02-28T22:00:05.512Z,20
2017-02-28T22:02:04.782Z,20
2017-02-28T22:04:07.937Z,20.1
2017-02-28T22:06:05.828Z,20
2017-02-28T22:08:05.642Z,20
2017-02-28T22:10:05.418Z,20
2017-02-28T22:12:05.519Z,20
2017-02-28T22:14:05.515Z,20
2017-02-28T22:16:05.281Z,20
2017-02-28T22:18:05.596Z,20.1
2017-02-28T22:20:05.728Z,20
2017-02-28T22:22:08.020Z,20.1
2017-02-28T22:24:05.196Z,20
2017-02-28T22:26:05.530Z,20.1
2017-02-28T22:28:04.793Z,20.1
2017-02-28T22:30:05.092Z,20
2017-02-28T22:32:05.025Z,20
2017-02-28T22:34:07.489Z,20.1
2017-02-28T22:36:05.472Z,20
2017-02-28T22:38:04.892Z,20
2017-02-28T22:40:05.586Z,20
2017-02-28T22:42:05.649Z,20
2017-02-28T22:44:05.459Z,20
2017-02-28T22:46:05.387Z,20
2017-02-28T22:48:05.767Z,20
2017-02-28T22:50:05.582Z,20
2017-02-28T22:52:08.233Z,20
2017-02-28T22:54:05.366Z,20
2017-02-28T22:56:05.061Z,20
2017-02-28T22:58:05.031Z,20
2017-02-28T23:00:07.550Z,20
2017-02-28T23:02:05.332Z,20
2017-02-28T23:04:05.344Z,20
2017-02-28T23:06:05.200Z,20
2017-02-28T23:08:05.714Z,20
2017-02-28T23:10:14.744Z,20
2017-02-28T23:12:05.273Z,20
2017-02-28T23:14:05.014Z,20
2017-02-28T23:16:05.281Z,20
2017-02-28T23:18:05.370Z,20
2017-02-28T23:20:04.695Z,20
2017-02-28T23:22:05.403Z,20
2017-02-28T23:24:07.562Z,20
2017-02-28T23:26:04.831Z,20
2017-02-28T23:28:05.612Z,20
2017-02-28T23:30:05.673Z,20
2017-02-28T23:32:05.012Z,20
2017-02-28T23:34:04.882Z,20
2017-02-28T23:36:04.995Z,20
2017-02-28T23:38:04.940Z,20
2017-02-28T23:40:04.810Z,20
2017-02-28T23:42:05.705Z,20
2017-02-28T23:44:04.966Z,20
2017-02-28T23:46:04.673Z,20
2017-02-28T23:48:05.652Z,20
2017-02-28T23:50:07.921Z,20
2017-02-28T23:52:04.655Z,20
2017-02-28T23:54:07.683Z,20
2017-02-28T23:56:05.420Z,20
2017-02-28T23:58:10.300Z,20
